Acronym/Abbreviation meaning of MIFG (Other)

The acronym MIFG(Other) means : Shallow Fog (METAR Code)

Acronyms, abbreviations and meanings similar to MIFG

Maximum Impact for God

Shallow Fog (METAR Code)

Multiple-Input Floating Gate

Search results for MIFG

Twitter Search Results for MIFG

Log in Sign up You are on Twitter Mobile because you are using an old version of Firefox. Learn more here Search Refresh Enter a topic, @name, or fullname GBF Tweets @ansgbftweets Dec 7 MIfg 6259AA8E :Battle ID I need backup! Lvl 120 Metatron pic.twitter.com/ExCmMhQRUA View photo · LSZH METARs @LSZHMETAR 5h LSZH 161650Z VRB01KT 4500 R14/P2000N R16/P2000N R28/P2000N R34/1400N MIFG FEW003 SCT005 01/01 Q1014 R88/29//// TEMPO 0800 BCFG BKN005 View location · LSZH METARs @LSZHMETAR 6h LSZH 161550Z 21003KT 6000 MIFG FEW010 SCT050 01/01 Q1014 R88/29//// BECMG 0800 BCFG View location · 名誉・プライバシー・著作権・表現 @mifg763AGjU3HFC 11h 世田谷保育士一斉退職 保育士は無責任だったのか? news.yahoo.co.jp/byline/konnoha… View summary · MIFG1997 @MIFG1997 21h Replying to @Juandedios_P 👏👏👏🙌🙌🙌🇵🇦🇵🇦🇵🇦💪💪💪👍👍👍👌👌👌💗💗💗😊😊😊👊👊👊 View conversation · IVAN @MIFG_BLACK Саша @hJM2kcTBSxmMIFg ชมพูนุท มงคลฟัก @mifgLJcOJ7VwFXa View more people 名誉・プライバシー・著作権・表現 @mifg763AGjU3HFC Dec 15 南アジアへ旅行に行ったら流暢な日本語で日本の植民地支配を感謝されたツイートの方がバズるから仕方ない View details · 名誉・プライバシー・著作権・表現 @mifg763AGjU3HFC Dec 15 賃金を上げたら上げたで一部利用者の中ではそれだけセクハラして良いことになるのか、地獄 View details · 名誉・プライバシー・著作権・表現 @mifg763AGjU3HFC Dec 15 いまだにどの職場にもいるセクハラジジイもベクデルテストにかけて基準に達していない奴をリストラしたほうが生産性が上がるんじゃないの View details · MIFG1997 @MIFG1997 Dec 12 Replying to @iamyashua 😍😍😍😍😍😍😍 View conversation · 名誉・プライバシー・著作権・表現 @mifg763AGjU3HFC Dec 12 年中左右に分かれてイデオロギー闘争に明け暮れているが双方に淫夢厨は居て誰が咎めるということもない、日本のインターネット View details · 名誉・プライバシー・著作権・表現 @mifg763AGjU3HFC Dec 12 Replying to @omoshiroE_Labo 「ほんへ」を視聴したとしてそれはどの様な手段で視聴されましたか? もしニコニコ動画等で違法視聴したのであれば、百田尚樹氏を批判する資格などありませんよね View conversation · 名誉・プライバシー・著作権・表現 @mifg763AGjU3HFC Dec 12 (察し) twitter.com/omoshiroE_Labo… View details · 名誉・プライバシー・著作権・表現 @mifg763AGjU3HFC Dec 12 (使命感) twitter.com/omoshiroE_Labo… View details · 名誉・プライバシー・著作権・表現 @mifg763AGjU3HFC Dec 12 (小並感)って淫夢語録ですか 野獣先輩の様に気持ち悪い? twitter.com/omoshiroE_Labo… View details · Edu ⚠️ @KauanBorin Dec 11 Replying to @bielborin @borinn_ @DreehBorin mifg estou indo te buscar ok? View conversation · Elstree Aerodrome @elstreeaerodrom Dec 11 Unofficial METAR: EGTR 110845Z 29010KT 4000 MIFG NCD 01/M01 Q1025 NOSIG Sunset - 1552Z pic.twitter.com/KtUAmNl3dk View photo · 名誉・プライバシー・著作権・表現 @mifg763AGjU3HFC Dec 10 しかし維新やばいな。ポーズだけでもLGBTパレードに稲田朋美が参加した自民よりもやばいんじゃないか View details · 名誉・プライバシー・著作権・表現 @mifg763AGjU3HFC Dec 10 淫夢容認・愛国保守すら愛想をつかすデマ本容認・肖像権知財侵害行為容認の政党、日本維新の会・大阪維新の会、代表の松井一郎さんをフォローしてみました View details · 名誉・プライバシー・著作権・表現 @mifg763AGjU3HFC Dec 10 さすが、淫夢厨を排出した政党。百田さんとも一心同体ですね。 twitter.com/gogoichiro/sta… View details · 名誉・プライバシー・著作権・表現 @mifg763AGjU3HFC Dec 10 政治家がこんなものに触ったら終わりだな。 View details · Load older Tweets Back to top · Turn images off

Acronyms, abbreviations meanings/definitions and descriptions

Meaning of ABWAG

ABWAG means: Abwasserabgabengestres (Germany Wastewater Discharge Law Regulates Cost Per Volume)

Meaning of IDF

IDF means: International Dairy Federation

Meaning of IUAM

IUAM means: Independent United Atom Model (in Positron Scattering By Mols.)

Meaning of EEE

EEE means: Electronic

Meaning of MA

MA means: Mature Audience

Copyrights © 2016 AcronymsMeanings. All Rights Reserved.